sensor_id;sensor_type;location;lat;lon;timestamp;P1;durP1;ratioP1;P2;durP2;ratioP2
18316;SDS011;9284;52.298;21.164;2024-03-08T00:00:17;94.07;;;35.30;;
18316;SDS011;9284;52.298;21.164;2024-03-08T00:02:48;91.33;;;35.87;;
18316;SDS011;9284;52.298;21.164;2024-03-08T00:05:18;86.30;;;34.77;;
18316;SDS011;9284;52.298;21.164;2024-03-08T00:07:46;95.47;;;35.60;;
18316;SDS011;9284;52.298;21.164;2024-03-08T00:10:15;92.17;;;35.13;;
18316;SDS011;9284;52.298;21.164;2024-03-08T00:12:44;97.43;;;36.43;;
18316;SDS011;9284;52.298;21.164;2024-03-08T00:15:14;102.20;;;39.27;;
18316;SDS011;9284;52.298;21.164;2024-03-08T00:17:45;99.40;;;37.47;;
18316;SDS011;9284;52.298;21.164;2024-03-08T00:20:15;96.67;;;38.70;;
18316;SDS011;9284;52.298;21.164;2024-03-08T00:22:46;95.93;;;37.10;;
18316;SDS011;9284;52.298;21.164;2024-03-08T00:25:14;99.30;;;38.80;;
18316;SDS011;9284;52.298;21.164;2024-03-08T00:27:43;98.10;;;37.63;;
18316;SDS011;9284;52.298;21.164;2024-03-08T00:30:11;98.57;;;40.90;;
18316;SDS011;9284;52.298;21.164;2024-03-08T00:32:41;105.33;;;40.30;;
18316;SDS011;9284;52.298;21.164;2024-03-08T00:35:11;102.80;;;41.63;;
18316;SDS011;9284;52.298;21.164;2024-03-08T00:37:39;108.47;;;41.20;;
18316;SDS011;9284;52.298;21.164;2024-03-08T00:40:09;110.47;;;41.90;;
18316;SDS011;9284;52.298;21.164;2024-03-08T00:42:38;104.30;;;42.30;;
18316;SDS011;9284;52.298;21.164;2024-03-08T00:45:08;110.43;;;41.07;;
18316;SDS011;9284;52.298;21.164;2024-03-08T00:47:38;107.57;;;41.97;;
18316;SDS011;9284;52.298;21.164;2024-03-08T00:50:07;107.63;;;42.50;;
18316;SDS011;9284;52.298;21.164;2024-03-08T00:52:37;109.40;;;44.50;;
18316;SDS011;9284;52.298;21.164;2024-03-08T00:55:06;111.23;;;42.20;;
18316;SDS011;9284;52.298;21.164;2024-03-08T00:57:37;114.80;;;44.17;;
18316;SDS011;9284;52.298;21.164;2024-03-08T01:00:06;106.60;;;42.20;;
18316;SDS011;9284;52.298;21.164;2024-03-08T01:02:45;105.47;;;41.73;;
18316;SDS011;9284;52.298;21.164;2024-03-08T01:05:14;111.23;;;42.93;;
18316;SDS011;9284;52.298;21.164;2024-03-08T01:07:44;115.13;;;42.07;;
18316;SDS011;9284;52.298;21.164;2024-03-08T01:10:13;104.33;;;43.43;;
18316;SDS011;9284;52.298;21.164;2024-03-08T01:12:42;110.20;;;42.00;;
18316;SDS011;9284;52.298;21.164;2024-03-08T01:15:11;104.03;;;41.80;;
18316;SDS011;9284;52.298;21.164;2024-03-08T01:17:40;117.20;;;43.60;;
18316;SDS011;9284;52.298;21.164;2024-03-08T01:20:13;104.97;;;42.30;;
18316;SDS011;9284;52.298;21.164;2024-03-08T01:22:41;113.53;;;43.47;;
18316;SDS011;9284;52.298;21.164;2024-03-08T01:25:11;116.93;;;46.40;;
18316;SDS011;9284;52.298;21.164;2024-03-08T01:27:39;122.17;;;45.77;;
18316;SDS011;9284;52.298;21.164;2024-03-08T01:30:09;127.70;;;46.77;;
18316;SDS011;9284;52.298;21.164;2024-03-08T01:32:40;114.73;;;47.77;;
18316;SDS011;9284;52.298;21.164;2024-03-08T01:35:10;131.83;;;46.47;;
18316;SDS011;9284;52.298;21.164;2024-03-08T01:37:39;121.57;;;46.67;;
18316;SDS011;9284;52.298;21.164;2024-03-08T01:40:08;127.83;;;47.57;;
18316;SDS011;9284;52.298;21.164;2024-03-08T01:42:39;124.07;;;47.23;;
18316;SDS011;9284;52.298;21.164;2024-03-08T01:45:07;114.80;;;46.47;;
18316;SDS011;9284;52.298;21.164;2024-03-08T01:47:36;128.30;;;49.53;;
18316;SDS011;9284;52.298;21.164;2024-03-08T01:50:06;116.23;;;46.97;;
18316;SDS011;9284;52.298;21.164;2024-03-08T01:52:35;117.53;;;47.23;;
18316;SDS011;9284;52.298;21.164;2024-03-08T01:55:05;130.17;;;49.13;;
18316;SDS011;9284;52.298;21.164;2024-03-08T01:57:34;128.77;;;46.43;;
18316;SDS011;9284;52.298;21.164;2024-03-08T02:00:07;121.57;;;46.87;;
18316;SDS011;9284;52.298;21.164;2024-03-08T02:02:37;111.53;;;46.60;;
18316;SDS011;9284;52.298;21.164;2024-03-08T02:05:11;109.97;;;44.77;;
18316;SDS011;9284;52.298;21.164;2024-03-08T02:07:40;122.30;;;45.80;;
18316;SDS011;9284;52.298;21.164;2024-03-08T02:10:10;112.73;;;44.23;;
18316;SDS011;9284;52.298;21.164;2024-03-08T02:12:40;114.07;;;45.77;;
18316;SDS011;9284;52.298;21.164;2024-03-08T02:15:10;116.13;;;45.83;;
18316;SDS011;9284;52.298;21.164;2024-03-08T02:17:39;110.70;;;44.53;;
18316;SDS011;9284;52.298;21.164;2024-03-08T02:20:08;127.90;;;46.87;;
18316;SDS011;9284;52.298;21.164;2024-03-08T02:22:44;113.83;;;44.73;;
18316;SDS011;9284;52.298;21.164;2024-03-08T02:25:12;113.87;;;43.27;;
18316;SDS011;9284;52.298;21.164;2024-03-08T02:27:46;114.43;;;43.47;;
18316;SDS011;9284;52.298;21.164;2024-03-08T02:30:14;125.30;;;46.20;;
18316;SDS011;9284;52.298;21.164;2024-03-08T02:32:44;112.30;;;43.70;;
18316;SDS011;9284;52.298;21.164;2024-03-08T02:35:13;111.30;;;43.27;;
18316;SDS011;9284;52.298;21.164;2024-03-08T02:37:42;121.43;;;46.70;;
18316;SDS011;9284;52.298;21.164;2024-03-08T02:40:14;127.57;;;48.87;;
18316;SDS011;9284;52.298;21.164;2024-03-08T02:42:43;120.50;;;46.80;;
18316;SDS011;9284;52.298;21.164;2024-03-08T02:45:11;124.83;;;46.77;;
18316;SDS011;9284;52.298;21.164;2024-03-08T02:47:40;121.50;;;45.60;;
18316;SDS011;9284;52.298;21.164;2024-03-08T02:50:11;128.33;;;47.17;;
18316;SDS011;9284;52.298;21.164;2024-03-08T02:52:44;120.37;;;46.17;;
18316;SDS011;9284;52.298;21.164;2024-03-08T02:55:13;125.63;;;47.40;;
18316;SDS011;9284;52.298;21.164;2024-03-08T02:57:43;134.67;;;48.67;;
18316;SDS011;9284;52.298;21.164;2024-03-08T03:00:14;125.53;;;48.80;;
18316;SDS011;9284;52.298;21.164;2024-03-08T03:02:43;135.50;;;49.57;;
18316;SDS011;9284;52.298;21.164;2024-03-08T03:05:12;134.33;;;49.17;;
18316;SDS011;9284;52.298;21.164;2024-03-08T03:07:41;123.80;;;46.80;;
18316;SDS011;9284;52.298;21.164;2024-03-08T03:10:16;130.67;;;49.67;;
18316;SDS011;9284;52.298;21.164;2024-03-08T03:12:47;134.87;;;47.30;;
18316;SDS011;9284;52.298;21.164;2024-03-08T03:15:16;134.33;;;48.37;;
18316;SDS011;9284;52.298;21.164;2024-03-08T03:17:46;124.67;;;46.77;;
18316;SDS011;9284;52.298;21.164;2024-03-08T03:20:15;125.23;;;47.47;;
18316;SDS011;9284;52.298;21.164;2024-03-08T03:22:50;124.87;;;47.83;;
18316;SDS011;9284;52.298;21.164;2024-03-08T03:25:19;130.00;;;48.77;;
18316;SDS011;9284;52.298;21.164;2024-03-08T03:27:54;123.83;;;47.23;;
18316;SDS011;9284;52.298;21.164;2024-03-08T03:30:23;127.90;;;48.93;;
18316;SDS011;9284;52.298;21.164;2024-03-08T03:32:53;125.27;;;47.23;;
18316;SDS011;9284;52.298;21.164;2024-03-08T03:35:27;127.23;;;49.23;;
18316;SDS011;9284;52.298;21.164;2024-03-08T03:38:00;129.53;;;46.67;;
18316;SDS011;9284;52.298;21.164;2024-03-08T03:40:35;134.17;;;49.07;;
18316;SDS011;9284;52.298;21.164;2024-03-08T03:43:04;128.73;;;50.57;;
18316;SDS011;9284;52.298;21.164;2024-03-08T03:45:34;128.00;;;49.03;;
18316;SDS011;9284;52.298;21.164;2024-03-08T03:48:04;127.30;;;49.87;;
18316;SDS011;9284;52.298;21.164;2024-03-08T03:50:38;128.87;;;48.17;;
18316;SDS011;9284;52.298;21.164;2024-03-08T03:53:08;129.07;;;49.10;;
18316;SDS011;9284;52.298;21.164;2024-03-08T03:55:37;135.43;;;50.97;;
18316;SDS011;9284;52.298;21.164;2024-03-08T03:58:07;119.77;;;48.13;;
18316;SDS011;9284;52.298;21.164;2024-03-08T04:00:37;132.20;;;50.87;;
18316;SDS011;9284;52.298;21.164;2024-03-08T04:03:07;141.77;;;51.53;;
18316;SDS011;9284;52.298;21.164;2024-03-08T04:05:36;128.43;;;51.27;;
18316;SDS011;9284;52.298;21.164;2024-03-08T04:08:04;125.50;;;50.03;;
18316;SDS011;9284;52.298;21.164;2024-03-08T04:10:34;140.53;;;51.77;;
18316;SDS011;9284;52.298;21.164;2024-03-08T04:13:03;130.93;;;50.60;;
18316;SDS011;9284;52.298;21.164;2024-03-08T04:15:32;126.50;;;48.23;;
18316;SDS011;9284;52.298;21.164;2024-03-08T04:18:02;135.37;;;48.70;;
18316;SDS011;9284;52.298;21.164;2024-03-08T04:20:31;133.73;;;48.50;;
18316;SDS011;9284;52.298;21.164;2024-03-08T04:23:00;129.27;;;49.57;;
18316;SDS011;9284;52.298;21.164;2024-03-08T04:25:28;147.20;;;48.90;;
18316;SDS011;9284;52.298;21.164;2024-03-08T04:27:59;131.93;;;49.87;;
18316;SDS011;9284;52.298;21.164;2024-03-08T04:30:27;133.13;;;49.53;;
18316;SDS011;9284;52.298;21.164;2024-03-08T04:32:56;126.10;;;48.77;;
18316;SDS011;9284;52.298;21.164;2024-03-08T04:35:25;140.37;;;50.60;;
18316;SDS011;9284;52.298;21.164;2024-03-08T04:37:54;118.60;;;47.10;;
18316;SDS011;9284;52.298;21.164;2024-03-08T04:40:24;134.17;;;51.33;;
18316;SDS011;9284;52.298;21.164;2024-03-08T04:42:57;145.07;;;51.97;;
18316;SDS011;9284;52.298;21.164;2024-03-08T04:45:28;148.40;;;49.70;;
18316;SDS011;9284;52.298;21.164;2024-03-08T04:47:56;146.80;;;52.20;;
18316;SDS011;9284;52.298;21.164;2024-03-08T04:50:25;127.97;;;50.10;;
18316;SDS011;9284;52.298;21.164;2024-03-08T04:52:56;134.50;;;50.27;;
18316;SDS011;9284;52.298;21.164;2024-03-08T04:55:24;134.13;;;50.87;;
18316;SDS011;9284;52.298;21.164;2024-03-08T04:57:53;131.37;;;49.03;;
18316;SDS011;9284;52.298;21.164;2024-03-08T05:00:25;124.30;;;48.03;;
18316;SDS011;9284;52.298;21.164;2024-03-08T05:02:53;120.93;;;45.70;;
18316;SDS011;9284;52.298;21.164;2024-03-08T05:05:22;123.70;;;46.73;;
18316;SDS011;9284;52.298;21.164;2024-03-08T05:07:52;128.10;;;47.80;;
18316;SDS011;9284;52.298;21.164;2024-03-08T05:10:21;123.13;;;48.27;;
18316;SDS011;9284;52.298;21.164;2024-03-08T05:12:51;135.47;;;47.80;;
18316;SDS011;9284;52.298;21.164;2024-03-08T05:15:29;119.20;;;46.00;;
18316;SDS011;9284;52.298;21.164;2024-03-08T05:18:01;118.63;;;46.40;;
18316;SDS011;9284;52.298;21.164;2024-03-08T05:20:32;139.43;;;49.17;;
18316;SDS011;9284;52.298;21.164;2024-03-08T05:23:01;128.67;;;47.80;;
18316;SDS011;9284;52.298;21.164;2024-03-08T05:25:30;131.37;;;47.27;;
18316;SDS011;9284;52.298;21.164;2024-03-08T05:27:58;114.37;;;45.80;;
18316;SDS011;9284;52.298;21.164;2024-03-08T05:30:31;124.17;;;45.33;;
18316;SDS011;9284;52.298;21.164;2024-03-08T05:33:00;130.07;;;47.70;;
18316;SDS011;9284;52.298;21.164;2024-03-08T05:35:30;151.23;;;63.13;;
18316;SDS011;9284;52.298;21.164;2024-03-08T05:38:03;202.67;;;74.43;;
18316;SDS011;9284;52.298;21.164;2024-03-08T05:40:35;174.63;;;62.13;;
18316;SDS011;9284;52.298;21.164;2024-03-08T05:43:10;132.03;;;49.00;;
18316;SDS011;9284;52.298;21.164;2024-03-08T05:45:41;118.37;;;47.23;;
18316;SDS011;9284;52.298;21.164;2024-03-08T05:48:10;133.07;;;48.80;;
18316;SDS011;9284;52.298;21.164;2024-03-08T05:50:39;124.10;;;48.07;;
18316;SDS011;9284;52.298;21.164;2024-03-08T05:53:11;123.60;;;47.10;;
18316;SDS011;9284;52.298;21.164;2024-03-08T05:55:42;139.13;;;47.83;;
18316;SDS011;9284;52.298;21.164;2024-03-08T05:58:10;115.40;;;47.63;;
18316;SDS011;9284;52.298;21.164;2024-03-08T06:00:40;122.93;;;46.40;;
18316;SDS011;9284;52.298;21.164;2024-03-08T06:03:10;128.40;;;46.77;;
18316;SDS011;9284;52.298;21.164;2024-03-08T06:05:38;124.40;;;46.97;;
18316;SDS011;9284;52.298;21.164;2024-03-08T06:08:08;125.30;;;46.87;;
18316;SDS011;9284;52.298;21.164;2024-03-08T06:10:40;113.67;;;46.83;;
18316;SDS011;9284;52.298;21.164;2024-03-08T06:13:09;122.27;;;49.00;;
18316;SDS011;9284;52.298;21.164;2024-03-08T06:15:40;127.63;;;49.03;;
18316;SDS011;9284;52.298;21.164;2024-03-08T06:18:09;128.87;;;46.53;;
18316;SDS011;9284;52.298;21.164;2024-03-08T06:20:38;134.07;;;46.10;;
18316;SDS011;9284;52.298;21.164;2024-03-08T06:23:12;128.87;;;47.90;;
18316;SDS011;9284;52.298;21.164;2024-03-08T06:25:44;128.13;;;48.93;;
18316;SDS011;9284;52.298;21.164;2024-03-08T06:28:13;111.30;;;44.47;;
18316;SDS011;9284;52.298;21.164;2024-03-08T06:30:46;122.90;;;45.03;;
18316;SDS011;9284;52.298;21.164;2024-03-08T06:33:14;125.43;;;49.23;;
18316;SDS011;9284;52.298;21.164;2024-03-08T06:35:43;127.13;;;46.47;;
18316;SDS011;9284;52.298;21.164;2024-03-08T06:38:12;127.33;;;46.77;;
18316;SDS011;9284;52.298;21.164;2024-03-08T06:40:43;122.20;;;45.20;;
18316;SDS011;9284;52.298;21.164;2024-03-08T06:43:14;117.37;;;45.67;;
18316;SDS011;9284;52.298;21.164;2024-03-08T06:45:43;119.53;;;46.97;;
18316;SDS011;9284;52.298;21.164;2024-03-08T06:48:17;129.83;;;49.07;;
18316;SDS011;9284;52.298;21.164;2024-03-08T06:50:46;138.57;;;49.80;;
18316;SDS011;9284;52.298;21.164;2024-03-08T06:53:15;133.90;;;51.83;;
18316;SDS011;9284;52.298;21.164;2024-03-08T06:55:51;134.30;;;50.50;;
18316;SDS011;9284;52.298;21.164;2024-03-08T06:58:20;130.30;;;50.23;;
18316;SDS011;9284;52.298;21.164;2024-03-08T07:00:49;161.30;;;54.40;;
18316;SDS011;9284;52.298;21.164;2024-03-08T07:03:22;138.50;;;55.70;;
18316;SDS011;9284;52.298;21.164;2024-03-08T07:05:51;145.20;;;54.53;;
18316;SDS011;9284;52.298;21.164;2024-03-08T07:08:20;149.07;;;54.70;;
18316;SDS011;9284;52.298;21.164;2024-03-08T07:10:51;135.80;;;53.20;;
18316;SDS011;9284;52.298;21.164;2024-03-08T07:13:20;123.43;;;51.53;;
18316;SDS011;9284;52.298;21.164;2024-03-08T07:15:49;120.78;;;52.60;;
18316;SDS011;9284;52.298;21.164;2024-03-08T07:18:19;108.80;;;46.83;;
18316;SDS011;9284;52.298;21.164;2024-03-08T07:20:49;128.95;;;51.55;;
18316;SDS011;9284;52.298;21.164;2024-03-08T07:23:18;114.45;;;46.67;;
18316;SDS011;9284;52.298;21.164;2024-03-08T07:26:00;109.47;;;48.33;;
18316;SDS011;9284;52.298;21.164;2024-03-08T07:28:29;99.03;;;46.75;;
18316;SDS011;9284;52.298;21.164;2024-03-08T07:30:57;102.03;;;45.92;;
18316;SDS011;9284;52.298;21.164;2024-03-08T07:33:40;96.57;;;47.53;;
18316;SDS011;9284;52.298;21.164;2024-03-08T07:36:09;97.70;;;46.35;;
18316;SDS011;9284;52.298;21.164;2024-03-08T07:38:38;89.32;;;45.90;;
18316;SDS011;9284;52.298;21.164;2024-03-08T07:41:07;93.00;;;47.10;;
18316;SDS011;9284;52.298;21.164;2024-03-08T07:43:35;96.20;;;45.78;;
18316;SDS011;9284;52.298;21.164;2024-03-08T07:46:03;101.78;;;47.20;;
18316;SDS011;9284;52.298;21.164;2024-03-08T07:48:32;96.20;;;47.40;;
18316;SDS011;9284;52.298;21.164;2024-03-08T07:51:02;89.65;;;43.63;;
18316;SDS011;9284;52.298;21.164;2024-03-08T07:53:30;80.18;;;42.30;;
18316;SDS011;9284;52.298;21.164;2024-03-08T07:55:59;74.78;;;38.70;;
18316;SDS011;9284;52.298;21.164;2024-03-08T07:58:27;82.20;;;38.53;;
18316;SDS011;9284;52.298;21.164;2024-03-08T08:00:57;66.72;;;36.33;;
18316;SDS011;9284;52.298;21.164;2024-03-08T08:03:25;69.55;;;35.28;;
18316;SDS011;9284;52.298;21.164;2024-03-08T08:05:53;69.07;;;35.05;;
18316;SDS011;9284;52.298;21.164;2024-03-08T08:08:23;62.50;;;29.17;;
18316;SDS011;9284;52.298;21.164;2024-03-08T08:10:53;65.63;;;31.77;;
18316;SDS011;9284;52.298;21.164;2024-03-08T08:13:21;60.40;;;29.60;;
18316;SDS011;9284;52.298;21.164;2024-03-08T08:15:50;65.70;;;32.05;;
18316;SDS011;9284;52.298;21.164;2024-03-08T08:18:18;61.05;;;29.13;;
18316;SDS011;9284;52.298;21.164;2024-03-08T08:20:51;62.60;;;29.65;;
18316;SDS011;9284;52.298;21.164;2024-03-08T08:23:19;60.15;;;27.90;;
18316;SDS011;9284;52.298;21.164;2024-03-08T08:25:49;63.22;;;29.13;;
18316;SDS011;9284;52.298;21.164;2024-03-08T08:28:17;60.17;;;27.27;;
18316;SDS011;9284;52.298;21.164;2024-03-08T08:30:47;64.80;;;28.52;;
18316;SDS011;9284;52.298;21.164;2024-03-08T08:33:16;61.05;;;27.20;;
18316;SDS011;9284;52.298;21.164;2024-03-08T08:35:44;50.88;;;23.30;;
18316;SDS011;9284;52.298;21.164;2024-03-08T08:38:14;45.15;;;22.02;;
18316;SDS011;9284;52.298;21.164;2024-03-08T08:40:42;69.63;;;31.27;;
18316;SDS011;9284;52.298;21.164;2024-03-08T08:43:13;46.88;;;20.15;;
18316;SDS011;9284;52.298;21.164;2024-03-08T08:45:41;39.58;;;19.00;;
18316;SDS011;9284;52.298;21.164;2024-03-08T08:48:10;35.75;;;16.55;;
18316;SDS011;9284;52.298;21.164;2024-03-08T08:50:38;31.60;;;15.57;;
18316;SDS011;9284;52.298;21.164;2024-03-08T08:53:08;37.22;;;17.33;;
18316;SDS011;9284;52.298;21.164;2024-03-08T08:55:39;32.45;;;15.13;;
18316;SDS011;9284;52.298;21.164;2024-03-08T08:58:07;34.92;;;15.35;;
18316;SDS011;9284;52.298;21.164;2024-03-08T09:00:37;32.28;;;14.88;;
18316;SDS011;9284;52.298;21.164;2024-03-08T09:03:06;33.95;;;14.70;;
18316;SDS011;9284;52.298;21.164;2024-03-08T09:05:34;27.65;;;13.27;;
18316;SDS011;9284;52.298;21.164;2024-03-08T09:08:05;22.63;;;11.85;;
18316;SDS011;9284;52.298;21.164;2024-03-08T09:10:35;34.42;;;13.75;;
18316;SDS011;9284;52.298;21.164;2024-03-08T09:13:05;28.33;;;13.65;;
18316;SDS011;9284;52.298;21.164;2024-03-08T09:15:45;41.08;;;14.68;;
18316;SDS011;9284;52.298;21.164;2024-03-08T09:18:15;35.20;;;14.93;;
18316;SDS011;9284;52.298;21.164;2024-03-08T09:20:46;26.00;;;11.95;;
18316;SDS011;9284;52.298;21.164;2024-03-08T09:23:14;37.80;;;14.20;;
18316;SDS011;9284;52.298;21.164;2024-03-08T09:25:43;20.58;;;10.13;;
18316;SDS011;9284;52.298;21.164;2024-03-08T09:28:13;30.48;;;12.13;;
18316;SDS011;9284;52.298;21.164;2024-03-08T09:30:44;21.13;;;9.98;;
18316;SDS011;9284;52.298;21.164;2024-03-08T09:33:24;22.95;;;10.05;;
18316;SDS011;9284;52.298;21.164;2024-03-08T09:35:55;21.10;;;10.00;;
18316;SDS011;9284;52.298;21.164;2024-03-08T09:38:26;12.35;;;7.10;;
18316;SDS011;9284;52.298;21.164;2024-03-08T09:40:55;21.02;;;10.02;;
18316;SDS011;9284;52.298;21.164;2024-03-08T09:43:25;20.42;;;9.05;;
18316;SDS011;9284;52.298;21.164;2024-03-08T09:45:56;18.60;;;9.18;;
18316;SDS011;9284;52.298;21.164;2024-03-08T09:48:25;21.55;;;9.98;;
18316;SDS011;9284;52.298;21.164;2024-03-08T09:50:55;19.08;;;9.30;;
18316;SDS011;9284;52.298;21.164;2024-03-08T09:53:24;24.70;;;9.10;;
18316;SDS011;9284;52.298;21.164;2024-03-08T09:55:52;20.48;;;10.15;;
18316;SDS011;9284;52.298;21.164;2024-03-08T09:58:21;17.00;;;9.45;;
18316;SDS011;9284;52.298;21.164;2024-03-08T10:01:04;20.25;;;9.05;;
18316;SDS011;9284;52.298;21.164;2024-03-08T10:03:33;19.50;;;9.48;;
18316;SDS011;9284;52.298;21.164;2024-03-08T10:06:02;20.08;;;9.30;;
18316;SDS011;9284;52.298;21.164;2024-03-08T10:08:33;17.42;;;9.23;;
18316;SDS011;9284;52.298;21.164;2024-03-08T10:11:03;20.85;;;9.70;;
18316;SDS011;9284;52.298;21.164;2024-03-08T10:13:32;20.40;;;9.15;;
18316;SDS011;9284;52.298;21.164;2024-03-08T10:16:00;16.17;;;8.45;;
18316;SDS011;9284;52.298;21.164;2024-03-08T10:18:30;13.73;;;7.65;;
18316;SDS011;9284;52.298;21.164;2024-03-08T10:21:03;18.83;;;9.43;;
18316;SDS011;9284;52.298;21.164;2024-03-08T10:23:34;17.33;;;7.65;;
18316;SDS011;9284;52.298;21.164;2024-03-08T10:26:12;17.20;;;8.10;;
18316;SDS011;9284;52.298;21.164;2024-03-08T10:28:42;13.05;;;6.88;;
18316;SDS011;9284;52.298;21.164;2024-03-08T10:31:11;14.30;;;7.30;;
18316;SDS011;9284;52.298;21.164;2024-03-08T10:33:46;16.27;;;7.90;;
18316;SDS011;9284;52.298;21.164;2024-03-08T10:36:15;16.20;;;8.30;;
18316;SDS011;9284;52.298;21.164;2024-03-08T10:38:46;18.48;;;8.60;;
18316;SDS011;9284;52.298;21.164;2024-03-08T10:41:14;18.42;;;9.15;;
18316;SDS011;9284;52.298;21.164;2024-03-08T10:43:48;17.67;;;8.40;;
18316;SDS011;9284;52.298;21.164;2024-03-08T10:46:36;18.65;;;8.70;;
18316;SDS011;9284;52.298;21.164;2024-03-08T10:49:16;21.65;;;10.20;;
18316;SDS011;9284;52.298;21.164;2024-03-08T10:51:45;18.42;;;9.40;;
18316;SDS011;9284;52.298;21.164;2024-03-08T10:54:16;18.20;;;9.20;;
18316;SDS011;9284;52.298;21.164;2024-03-08T10:56:44;19.90;;;8.95;;
18316;SDS011;9284;52.298;21.164;2024-03-08T10:59:13;16.88;;;8.38;;
18316;SDS011;9284;52.298;21.164;2024-03-08T11:01:43;16.33;;;8.95;;
18316;SDS011;9284;52.298;21.164;2024-03-08T11:04:14;18.70;;;9.55;;
18316;SDS011;9284;52.298;21.164;2024-03-08T11:06:42;16.75;;;8.45;;
18316;SDS011;9284;52.298;21.164;2024-03-08T11:09:29;19.33;;;8.80;;
18316;SDS011;9284;52.298;21.164;2024-03-08T11:14:52;14.30;;;8.38;;
18316;SDS011;9284;52.298;21.164;2024-03-08T11:17:22;20.25;;;9.88;;
18316;SDS011;9284;52.298;21.164;2024-03-08T11:19:56;17.52;;;9.82;;
18316;SDS011;9284;52.298;21.164;2024-03-08T11:22:29;20.20;;;9.88;;
18316;SDS011;9284;52.298;21.164;2024-03-08T11:25:00;18.88;;;8.93;;
18316;SDS011;9284;52.298;21.164;2024-03-08T11:27:29;17.70;;;9.52;;
18316;SDS011;9284;52.298;21.164;2024-03-08T11:30:00;20.60;;;9.52;;
18316;SDS011;9284;52.298;21.164;2024-03-08T11:32:45;21.45;;;9.75;;
18316;SDS011;9284;52.298;21.164;2024-03-08T11:35:19;18.63;;;9.80;;
18316;SDS011;9284;52.298;21.164;2024-03-08T11:37:50;19.50;;;11.15;;
18316;SDS011;9284;52.298;21.164;2024-03-08T11:40:18;19.50;;;10.10;;
18316;SDS011;9284;52.298;21.164;2024-03-08T11:42:48;16.90;;;9.35;;
18316;SDS011;9284;52.298;21.164;2024-03-08T11:45:18;18.65;;;9.73;;
18316;SDS011;9284;52.298;21.164;2024-03-08T11:47:48;20.60;;;10.10;;
18316;SDS011;9284;52.298;21.164;2024-03-08T11:50:18;20.55;;;10.88;;
18316;SDS011;9284;52.298;21.164;2024-03-08T11:52:47;23.52;;;10.95;;
18316;SDS011;9284;52.298;21.164;2024-03-08T11:55:16;21.38;;;10.57;;
18316;SDS011;9284;52.298;21.164;2024-03-08T11:57:47;23.48;;;11.32;;
18316;SDS011;9284;52.298;21.164;2024-03-08T12:00:16;22.73;;;10.77;;
18316;SDS011;9284;52.298;21.164;2024-03-08T12:03:00;20.15;;;10.48;;
18316;SDS011;9284;52.298;21.164;2024-03-08T12:05:31;21.08;;;11.07;;
18316;SDS011;9284;52.298;21.164;2024-03-08T12:08:01;19.23;;;10.88;;
18316;SDS011;9284;52.298;21.164;2024-03-08T12:10:29;21.13;;;10.52;;
18316;SDS011;9284;52.298;21.164;2024-03-08T12:12:58;19.42;;;10.20;;
18316;SDS011;9284;52.298;21.164;2024-03-08T12:15:27;19.60;;;9.77;;
18316;SDS011;9284;52.298;21.164;2024-03-08T12:17:59;20.05;;;10.07;;
18316;SDS011;9284;52.298;21.164;2024-03-08T12:20:28;20.05;;;10.27;;
18316;SDS011;9284;52.298;21.164;2024-03-08T12:22:59;19.35;;;9.73;;
18316;SDS011;9284;52.298;21.164;2024-03-08T12:25:27;17.23;;;9.40;;
18316;SDS011;9284;52.298;21.164;2024-03-08T12:28:06;19.98;;;9.95;;
18316;SDS011;9284;52.298;21.164;2024-03-08T12:30:37;22.05;;;9.50;;
18316;SDS011;9284;52.298;21.164;2024-03-08T12:33:13;17.70;;;9.27;;
18316;SDS011;9284;52.298;21.164;2024-03-08T12:35:49;19.15;;;9.18;;
18316;SDS011;9284;52.298;21.164;2024-03-08T12:38:21;21.10;;;10.52;;
18316;SDS011;9284;52.298;21.164;2024-03-08T12:40:54;22.92;;;9.90;;
18316;SDS011;9284;52.298;21.164;2024-03-08T12:43:24;18.90;;;8.88;;
18316;SDS011;9284;52.298;21.164;2024-03-08T12:45:55;17.40;;;8.80;;
18316;SDS011;9284;52.298;21.164;2024-03-08T12:48:23;20.80;;;10.05;;
18316;SDS011;9284;52.298;21.164;2024-03-08T12:50:53;17.95;;;9.77;;
18316;SDS011;9284;52.298;21.164;2024-03-08T12:53:21;19.70;;;9.93;;
18316;SDS011;9284;52.298;21.164;2024-03-08T12:55:52;17.50;;;9.40;;
18316;SDS011;9284;52.298;21.164;2024-03-08T12:58:23;18.88;;;9.57;;
18316;SDS011;9284;52.298;21.164;2024-03-08T13:00:52;18.60;;;9.55;;
18316;SDS011;9284;52.298;21.164;2024-03-08T13:03:21;18.88;;;9.57;;
18316;SDS011;9284;52.298;21.164;2024-03-08T13:05:50;21.00;;;9.82;;
18316;SDS011;9284;52.298;21.164;2024-03-08T13:08:20;19.20;;;9.02;;
18316;SDS011;9284;52.298;21.164;2024-03-08T13:10:51;20.17;;;10.00;;
18316;SDS011;9284;52.298;21.164;2024-03-08T13:13:22;25.08;;;9.57;;
18316;SDS011;9284;52.298;21.164;2024-03-08T13:15:51;16.92;;;8.60;;
18316;SDS011;9284;52.298;21.164;2024-03-08T13:18:19;17.75;;;9.05;;
18316;SDS011;9284;52.298;21.164;2024-03-08T13:20:48;15.85;;;8.52;;
18316;SDS011;9284;52.298;21.164;2024-03-08T13:23:18;18.55;;;9.43;;
18316;SDS011;9284;52.298;21.164;2024-03-08T13:25:48;23.25;;;10.15;;
18316;SDS011;9284;52.298;21.164;2024-03-08T13:28:17;19.85;;;9.65;;
18316;SDS011;9284;52.298;21.164;2024-03-08T13:30:50;19.98;;;8.95;;
18316;SDS011;9284;52.298;21.164;2024-03-08T13:33:24;19.50;;;9.30;;
18316;SDS011;9284;52.298;21.164;2024-03-08T13:35:54;17.25;;;8.85;;
18316;SDS011;9284;52.298;21.164;2024-03-08T13:38:32;16.88;;;8.65;;
18316;SDS011;9284;52.298;21.164;2024-03-08T13:41:02;16.95;;;8.85;;
18316;SDS011;9284;52.298;21.164;2024-03-08T13:43:31;18.65;;;8.73;;
18316;SDS011;9284;52.298;21.164;2024-03-08T13:46:02;18.90;;;9.38;;
18316;SDS011;9284;52.298;21.164;2024-03-08T13:48:32;16.50;;;7.97;;
18316;SDS011;9284;52.298;21.164;2024-03-08T13:51:00;19.10;;;9.05;;
18316;SDS011;9284;52.298;21.164;2024-03-08T13:53:29;18.92;;;8.20;;
18316;SDS011;9284;52.298;21.164;2024-03-08T13:55:58;20.75;;;8.90;;
18316;SDS011;9284;52.298;21.164;2024-03-08T13:58:27;18.42;;;8.55;;
18316;SDS011;9284;52.298;21.164;2024-03-08T14:00:55;16.00;;;8.10;;
18316;SDS011;9284;52.298;21.164;2024-03-08T14:03:23;17.15;;;8.10;;
18316;SDS011;9284;52.298;21.164;2024-03-08T14:05:52;16.15;;;8.25;;
18316;SDS011;9284;52.298;21.164;2024-03-08T14:08:22;17.88;;;8.55;;
18316;SDS011;9284;52.298;21.164;2024-03-08T14:10:51;16.63;;;8.43;;
18316;SDS011;9284;52.298;21.164;2024-03-08T14:13:22;16.95;;;8.88;;
18316;SDS011;9284;52.298;21.164;2024-03-08T14:15:52;15.25;;;7.53;;
18316;SDS011;9284;52.298;21.164;2024-03-08T14:18:20;17.73;;;8.52;;
18316;SDS011;9284;52.298;21.164;2024-03-08T14:20:48;15.07;;;8.18;;
18316;SDS011;9284;52.298;21.164;2024-03-08T14:23:17;17.92;;;7.93;;
18316;SDS011;9284;52.298;21.164;2024-03-08T14:25:46;16.85;;;8.45;;
18316;SDS011;9284;52.298;21.164;2024-03-08T14:28:18;14.70;;;7.40;;
18316;SDS011;9284;52.298;21.164;2024-03-08T14:30:48;15.07;;;7.72;;
18316;SDS011;9284;52.298;21.164;2024-03-08T14:33:17;19.40;;;8.48;;
18316;SDS011;9284;52.298;21.164;2024-03-08T14:35:45;17.83;;;7.72;;
18316;SDS011;9284;52.298;21.164;2024-03-08T14:38:16;15.73;;;7.53;;